Home > Products > Valid Products > TAF

000
FTUS42 KCAE 140520
TAFCUB
TAF
KCUB 140520Z 1406/1506 03005KT P6SM SKC
     FM140900 05005KT P6SM BKN150
     FM141500 06008KT P6SM BKN120=



000
FTUS42 KCAE 140520
TAFOGB
TAF
KOGB 140520Z 1406/1506 04006KT P6SM SKC
     FM140900 05006KT P6SM SCT150
     FM141500 07010KT P6SM BKN120=



000
FTUS42 KCAE 140520
TAFAGS
TAF
KAGS 140520Z 1406/1506 32005KT P6SM SKC
     FM140900 02006KT P6SM SCT150
     FM141500 07010KT P6SM BKN120=



000
FTUS42 KCAE 140520
TAFCAE
TAF
KCAE 140520Z 1406/1506 03007KT P6SM SKC
     FM140900 05006KT P6SM BKN150
     FM141500 06010KT P6SM BKN120=



000
FTUS42 KCAE 140520
TAFDNL
TAF
KDNL 140520Z 1406/1506 33005KT P6SM SKC
     FM140900 04006KT P6SM SCT150
     FM141500 07010KT P6SM BKN120=



000
FTUS42 KCAE 140520
TAFOGB
TAF
KOGB 140520Z 1406/1506 04006KT P6SM SKC
     FM140900 05006KT P6SM SCT150
     FM141500 07010KT P6SM BKN120=



000
FTUS42 KCAE 140520
TAFCUB
TAF
KCUB 140520Z 1406/1506 03005KT P6SM SKC
     FM140900 05005KT P6SM BKN150
     FM141500 06008KT P6SM BKN120=



000
FTUS42 KCAE 140520
TAFAGS
TAF
KAGS 140520Z 1406/1506 32005KT P6SM SKC
     FM140900 02006KT P6SM SCT150
     FM141500 07010KT P6SM BKN120=



000
FTUS42 KCAE 140520
TAFCAE
TAF
KCAE 140520Z 1406/1506 03007KT P6SM SKC
     FM140900 05006KT P6SM BKN150
     FM141500 06010KT P6SM BKN120=



000
FTUS42 KCAE 140520
TAFDNL
TAF
KDNL 140520Z 1406/1506 33005KT P6SM SKC
     FM140900 04006KT P6SM SCT150
     FM141500 07010KT P6SM BKN120=



000
FTUS42 KCAE 140303 CCA
TAFOGB
TAF COR
KOGB 140303Z 1403/1424 04006KT P6SM SKC
     FM140900 05008KT P6SM SCT150
     FM141500 07010KT P6SM BKN120=



000
FTUS42 KCAE 140303 CCA
TAFOGB
TAF COR
KOGB 140303Z 1403/1424 04006KT P6SM SKC
     FM140900 05008KT P6SM SCT150
     FM141500 07010KT P6SM BKN120=



000
FTUS42 KCAE 140303 CCA
TAFAGS
TAF COR
KAGS 140303Z 1403/1424 32005KT P6SM SKC
     FM140500 02008KT P6SM SCT150
     FM141500 07010KT P6SM BKN120=



000
FTUS42 KCAE 140303 CCA
TAFDNL
TAF COR
KDNL 140303Z 1403/1424 33005KT P6SM SKC
     FM140500 04008KT P6SM SCT150
     FM141500 07010KT P6SM BKN120=



000
FTUS42 KCAE 140300 AAA
TAFCAE
TAF AMD
KCAE 140300Z 1403/1424 03008KT P6SM SKC
     FM140900 05008KT P6SM BKN150
     FM141500 06010KT P6SM BKN120=



000
FTUS42 KCAE 140300 AAA
TAFCUB
TAF AMD
KCUB 140300Z 1403/1424 03005KT P6SM SKC
     FM140900 05005KT P6SM BKN150
     FM141500 06008KT P6SM BKN120=



000
FTUS42 KCAE 140300 AAA
TAFOGB
TAF AMD
KOGB 140300Z 1403/1424 04006KT P6SM SKC
     FM140900 05008KT P6SM BKN150
     FM141500 07010KT P6SM BKN120=



000
FTUS42 KCAE 140300 AAA
TAFAGS
TAF AMD
KAGS 140300Z 1403/1424 32005KT P6SM SKC
     FM140500 02008KT P6SM BKN150
     FM141500 07010KT P6SM BKN120=



000
FTUS42 KCAE 140300 AAA
TAFDNL
TAF AMD
KDNL 140300Z 1403/1424 33005KT P6SM SKC
     FM140500 04008KT P6SM BKN150
     FM141500 07010KT P6SM BKN120=



000
FTUS42 KCAE 132329
TAFCAE
TAF
KCAE 132329Z 1400/1424 02006KT P6SM SKC
     FM140900 05008KT P6SM BKN120=



000
FTUS42 KCAE 132329
TAFCUB
TAF
KCUB 132329Z 1400/1424 02005KT P6SM SKC
     FM140900 05006KT P6SM BKN120=



000
FTUS42 KCAE 132329
TAFAGS
TAF
KAGS 132329Z 1400/1424 34005KT P6SM SKC
     FM140500 02007KT P6SM BKN150
     FM141500 07010KT P6SM BKN120=



000
FTUS42 KCAE 132329
TAFOGB
TAF
KOGB 132329Z 1400/1424 02006KT P6SM SKC
     FM140900 05008KT P6SM BKN150=



000
FTUS42 KCAE 132329
TAFDNL
TAF
KDNL 132329Z 1400/1424 34005KT P6SM SKC
     FM140500 04008KT P6SM BKN150
     FM141500 07010KT P6SM BKN120=



000
FTUS42 KCAE 132329
TAFCAE
TAF
KCAE 132329Z 1400/1424 02006KT P6SM SKC
     FM140900 05008KT P6SM BKN120=



000
FTUS42 KCAE 132329
TAFCUB
TAF
KCUB 132329Z 1400/1424 02005KT P6SM SKC
     FM140900 05006KT P6SM BKN120=



000
FTUS42 KCAE 132329
TAFDNL
TAF
KDNL 132329Z 1400/1424 34005KT P6SM SKC
     FM140500 04008KT P6SM BKN150
     FM141500 07010KT P6SM BKN120=



000
FTUS42 KCAE 132329
TAFOGB
TAF
KOGB 132329Z 1400/1424 02006KT P6SM SKC
     FM140900 05008KT P6SM BKN150=



000
FTUS42 KCAE 132329
TAFAGS
TAF
KAGS 132329Z 1400/1424 34005KT P6SM SKC
     FM140500 02007KT P6SM BKN150
     FM141500 07010KT P6SM BKN120=



000
FTUS42 KCAE 132056 AAA
TAFCAE
TAF AMD
KCAE 132056Z 1321/1418 32011G18KT P6SM SKC
     FM132300 33010KT P6SM SKC
     FM140100 36008KT P6SM SCT250
     FM140700 07008KT P6SM BKN150=



000
FTUS42 KCAE 132056 AAA
TAFAGS
TAF AMD
KAGS 132056Z 1321/1418 33010KT P6SM SKC
     FM140500 02007KT P6SM BKN150
     FM141300 07009KT P6SM SCT250=



000
FTUS42 KCAE 132056 AAA
TAFOGB
TAF AMD
KOGB 132056Z 1321/1418 32010KT P6SM SKC
     FM140100 04005KT P6SM SKC
     FM141300 05010KT P6SM SCT150=



000
FTUS42 KCAE 132056 AAA
TAFCUB
TAF AMD
KCUB 132056Z 1321/1418 32008G18KT P6SM SKC
     FM132300 33005KT P6SM SKC
     FM140300 VRB04KT P6SM SCT250
     FM141200 08006KT P6SM BKN150=



000
FTUS42 KCAE 132056 AAA
TAFDNL
TAF AMD
KDNL 132056Z 1321/1418 33008KT P6SM SKC
     FM140500 04008KT P6SM BKN150
     FM141300 07012KT P6SM SCT250=



000
FTUS42 KCAE 131735
TAFDNL
TAF
KDNL 131735Z 1318/1418 32008KT P6SM SKC
     FM140500 04008KT P6SM BKN150
     FM141300 07012KT P6SM SCT250=



000
FTUS42 KCAE 131735
TAFAGS
TAF
KAGS 131735Z 1318/1418 31009KT P6SM SKC
     FM140500 02007KT P6SM BKN150
     FM141300 07009KT P6SM SCT250=



000
FTUS42 KCAE 131735
TAFOGB
TAF
KOGB 131735Z 1318/1418 34009KT P6SM SKC
     FM140100 04005KT P6SM SKC
     FM141300 05010KT P6SM SCT150=



000
FTUS42 KCAE 131735
TAFCUB
TAF
KCUB 131735Z 1318/1418 33008KT P6SM SKC
     FM140100 VRB03KT P6SM SCT250
     FM141200 08006KT P6SM BKN150=



000
FTUS42 KCAE 131735
TAFCAE
TAF
KCAE 131735Z 1318/1418 33011KT P6SM SKC
     FM140100 VRB03KT P6SM SCT250
     FM140700 07008KT P6SM BKN150=



000
FTUS42 KCAE 131438 AAA
TAFCUB
TAF AMD
KCUB 131438Z 1315/1412 35008KT P6SM SKC
     FM140000 VRB03KT P6SM SCT250=



000
FTUS42 KCAE 131438 AAA
TAFDNL
TAF AMD
KDNL 131438Z 1315/1412 35009G17KT P6SM SKC
     FM140000 01007KT P6SM SCT250=



000
FTUS42 KCAE 131438 AAA
TAFCAE
TAF AMD
KCAE 131438Z 1315/1412 35010KT P6SM SKC
     FM140000 01004KT P6SM SCT250=



000
FTUS42 KCAE 131438 AAA
TAFAGS
TAF AMD
KAGS 131438Z 1315/1412 34010KT P6SM SKC
     FM140000 01005KT P6SM SCT250=



000
FTUS42 KCAE 131438 AAA
TAFOGB
TAF AMD
KOGB 131438Z 1315/1412 36012G19KT P6SM SKC
     FM140000 01005KT P6SM SKC
     FM140400 05007KT P6SM FEW250=



000
FTUS42 KCAE 131122
TAFCUB
TAF
KCUB 131122Z 1312/1412 30006KT P6SM SKC
     FM131400 35010KT P6SM SKC
     FM140000 01004KT P6SM BKN150=



000
FTUS42 KCAE 131122
TAFOGB
TAF
KOGB 131122Z 1312/1412 30006KT P6SM SKC
     FM131500 36012G18KT P6SM SKC
     FM140000 01005KT P6SM BKN150=



000
FTUS42 KCAE 131122
TAFCAE
TAF
KCAE 131122Z 1312/1412 30006KT P6SM SKC
     FM131400 35010KT P6SM SKC
     FM140000 01004KT P6SM BKN150=



000
FTUS42 KCAE 131122
TAFCUB
TAF
KCUB 131122Z 1312/1412 30006KT P6SM SKC
     FM131400 35010KT P6SM SKC
     FM140000 01004KT P6SM BKN150=



000
FTUS42 KCAE 131122
TAFDNL
TAF
KDNL 131122Z 1312/1412 30008KT P6SM SKC
     FM131400 35009KT P6SM SKC
     FM140000 01005KT P6SM BKN150=



000
FTUS42 KCAE 131122
TAFAGS
TAF
KAGS 131122Z 1312/1412 31008KT P6SM SKC
     FM131400 35010KT P6SM SKC
     FM140000 01005KT P6SM BKN150=



000
FTUS42 KCAE 131122
TAFDNL
TAF
KDNL 131122Z 1312/1412 30008KT P6SM SKC
     FM131400 35009KT P6SM SKC
     FM140000 01005KT P6SM BKN150=



000
FTUS42 KCAE 131122
TAFAGS
TAF
KAGS 131122Z 1312/1412 31008KT P6SM SKC
     FM131400 35010KT P6SM SKC
     FM140000 01005KT P6SM BKN150=



000
FTUS42 KCAE 131122
TAFCAE
TAF
KCAE 131122Z 1312/1412 30006KT P6SM SKC
     FM131400 35010KT P6SM SKC
     FM140000 01004KT P6SM BKN150=



000
FTUS42 KCAE 131122
TAFOGB
TAF
KOGB 131122Z 1312/1412 30006KT P6SM SKC
     FM131500 36012G18KT P6SM SKC
     FM140000 01005KT P6SM BKN150=



000
FTUS42 KCAE 130913 AAB
TAFAGS
TAF AMD
KAGS 130913Z 1309/1406 31008KT P6SM SKC
     FM131400 35010KT P6SM SKC=



000
FTUS42 KCAE 130913 AAB
TAFDNL
TAF AMD
KDNL 130913Z 1309/1406 30008KT P6SM SKC
     FM131400 35009KT P6SM SKC=



000
FTUS42 KCAE 130913 AAB
TAFDNL
TAF AMD
KDNL 130913Z 1309/1406 30008KT P6SM SKC
     FM131400 35009KT P6SM SKC=



000
FTUS42 KCAE 130913 AAB
TAFAGS
TAF AMD
KAGS 130913Z 1309/1406 31008KT P6SM SKC
     FM131400 35010KT P6SM SKC=



000
FTUS42 KCAE 130835 AAA
TAFAGS
TAF AMD
KAGS 130835Z 1309/1406 31010KT P6SM SKC
     FM131400 35010KT P6SM SKC=



000
FTUS42 KCAE 130835 AAA
TAFCAE
TAF AMD
KCAE 130835Z 1309/1406 30006KT P6SM SKC
     FM131400 35010KT P6SM FEW250=



000
FTUS42 KCAE 130835 AAA
TAFDNL
TAF AMD
KDNL 130835Z 1309/1406 30010KT P6SM SKC
     FM131400 35009KT P6SM SKC=



000
FTUS42 KCAE 130835 AAA
TAFCUB
TAF AMD
KCUB 130835Z 1309/1406 30006KT P6SM SKC
     FM131400 34010KT P6SM FEW250=



000
FTUS42 KCAE 130835 AAA
TAFOGB
TAF AMD
KOGB 130835Z 1309/1406 30006KT P6SM SKC
     FM131500 36012G18KT P6SM SKC=



000
FTUS42 KCAE 130520
TAFCAE
TAF
KCAE 130520Z 1306/1406 30006KT P6SM SKC
     FM131400 35010KT P6SM FEW250=



000
FTUS42 KCAE 130520
TAFOGB
TAF
KOGB 130520Z 1306/1406 30006KT P6SM SKC
     FM131500 36012G18KT P6SM SKC=



000
FTUS42 KCAE 130520
TAFDNL
TAF
KDNL 130520Z 1306/1406 30010KT P6SM SKC
     FM131400 35009KT P6SM SKC=



000
FTUS42 KCAE 130520
TAFAGS
TAF
KAGS 130520Z 1306/1406 31010KT P6SM SKC
     FM131400 35010KT P6SM SKC=



000
FTUS42 KCAE 130520
TAFCUB
TAF
KCUB 130520Z 1306/1406 30006KT P6SM SKC
     FM131400 34010KT P6SM FEW250=



000
FTUS42 KCAE 130341 AAB
TAFAGS
TAF AMD
KAGS 130341Z 1304/1324 31010KT P6SM SKC
     FM131400 35010KT P6SM SKC=



000
FTUS42 KCAE 130253 AAA
TAFAGS
TAF AMD
KAGS 130253Z 1303/1324 32005KT P6SM SKC
     FM130500 31010KT P6SM SKC
     FM131400 35010KT P6SM SKC=



000
FTUS42 KCAE 130253 AAA
TAFCAE
TAF AMD
KCAE 130253Z 1303/1324 29005KT P6SM SKC
     FM130500 30010KT P6SM SKC
     FM131400 35010KT P6SM FEW250=



000
FTUS42 KCAE 130253 AAA
TAFCUB
TAF AMD
KCUB 130253Z 1303/1324 VRB03KT 6SM HZ SKC
     FM130500 30007KT P6SM SKC
     FM131400 34010KT P6SM FEW250=



000
FTUS42 KCAE 130253 AAA
TAFCUB
TAF AMD
KCUB 130253Z 1303/1324 VRB03KT 6SM HZ SKC
     FM130500 30007KT P6SM SKC
     FM131400 34010KT P6SM FEW250=



000
FTUS42 KCAE 130253 AAA
TAFAGS
TAF AMD
KAGS 130253Z 1303/1324 32005KT P6SM SKC
     FM130500 31010KT P6SM SKC
     FM131400 35010KT P6SM SKC=



000
FTUS42 KCAE 130253 AAA
TAFOGB
TAF AMD
KOGB 130253Z 1303/1324 VRB03KT P6SM SKC
     FM130500 30008KT P6SM SKC
     FM131500 36012G18KT P6SM SKC=



000
FTUS42 KCAE 130253 AAA
TAFDNL
TAF AMD
KDNL 130253Z 1303/1324 30010KT P6SM SKC
     FM131400 35009KT P6SM SKC=



000
FTUS42 KCAE 130253 AAA
TAFOGB
TAF AMD
KOGB 130253Z 1303/1324 VRB03KT P6SM SKC
     FM130500 30008KT P6SM SKC
     FM131500 36012G18KT P6SM SKC=



000
FTUS42 KCAE 130253 AAA
TAFDNL
TAF AMD
KDNL 130253Z 1303/1324 30010KT P6SM SKC
     FM131400 35009KT P6SM SKC=



000
FTUS42 KCAE 130253 AAA
TAFCAE
TAF AMD
KCAE 130253Z 1303/1324 29005KT P6SM SKC
     FM130500 30010KT P6SM SKC
     FM131400 35010KT P6SM FEW250=



000
FTUS42 KCAE 122339
TAFCAE
TAF
KCAE 122339Z 1300/1324 VRB03KT P6SM SCT070
     FM130500 27009KT P6SM SKC
     FM131400 35010KT P6SM FEW250=



000
FTUS42 KCAE 122339
TAFOGB
TAF
KOGB 122339Z 1300/1324 VRB03KT P6SM FEW070
     FM130500 29008KT P6SM SKC
     FM131500 36012G18KT P6SM SKC=



000
FTUS42 KCAE 122339
TAFCUB
TAF
KCUB 122339Z 1300/1324 VRB03KT P6SM SCT070
     FM130500 27007KT P6SM SKC
     FM131400 34010KT P6SM FEW250=



000
FTUS42 KCAE 122339
TAFDNL
TAF
KDNL 122339Z 1300/1324 31005KT P6SM SKC
     FM130500 30010KT P6SM SKC
     FM131400 35009KT P6SM SKC=



000
FTUS42 KCAE 122339
TAFOGB
TAF
KOGB 122339Z 1300/1324 VRB03KT P6SM FEW070
     FM130500 29008KT P6SM SKC
     FM131500 36012G18KT P6SM SKC=



000
FTUS42 KCAE 122339
TAFAGS
TAF
KAGS 122339Z 1300/1324 31005KT P6SM SKC
     FM130500 30010KT P6SM SKC
     FM131400 35009KT P6SM SKC=



000
FTUS42 KCAE 122339
TAFDNL
TAF
KDNL 122339Z 1300/1324 31005KT P6SM SKC
     FM130500 30010KT P6SM SKC
     FM131400 35009KT P6SM SKC=



000
FTUS42 KCAE 122339
TAFCUB
TAF
KCUB 122339Z 1300/1324 VRB03KT P6SM SCT070
     FM130500 27007KT P6SM SKC
     FM131400 34010KT P6SM FEW250=



000
FTUS42 KCAE 122339
TAFAGS
TAF
KAGS 122339Z 1300/1324 31005KT P6SM SKC
     FM130500 30010KT P6SM SKC
     FM131400 35009KT P6SM SKC=



000
FTUS42 KCAE 122339
TAFCAE
TAF
KCAE 122339Z 1300/1324 VRB03KT P6SM SCT070
     FM130500 27009KT P6SM SKC
     FM131400 35010KT P6SM FEW250=



000
FTUS42 KCAE 122052 AAA
TAFAGS
TAF AMD
KAGS 122052Z 1221/1318 36006KT P6SM SKC
     FM130200 30010KT P6SM SKC
     FM131400 35009KT P6SM SKC=



000
FTUS42 KCAE 122052 AAA
TAFCUB
TAF AMD
KCUB 122052Z 1221/1318 VRB03KT P6SM SKC
     FM130300 27007KT P6SM SKC
     FM131400 34010KT P6SM FEW250=



000
FTUS42 KCAE 122052 AAA
TAFOGB
TAF AMD
KOGB 122052Z 1221/1318 VRB03KT P6SM SKC
     FM130400 29008KT P6SM SKC
     FM131500 36012G18KT P6SM SKC=



000
FTUS42 KCAE 122052 AAA
TAFCAE
TAF AMD
KCAE 122052Z 1221/1318 VRB03KT P6SM SKC
     FM130300 27009KT P6SM SKC
     FM131400 35010KT P6SM FEW250=



000
FTUS42 KCAE 122052 AAA
TAFDNL
TAF AMD
KDNL 122052Z 1221/1318 35006KT P6SM SKC
     FM130200 30010KT P6SM SKC
     FM131400 35009KT P6SM SKC=



000
FTUS42 KCAE 121729
TAFOGB
TAF
KOGB 121729Z 1218/1318 34006KT P6SM SCT040 BKN100
     FM130000 29005KT P6SM SKC
     FM130500 29008KT P6SM SKC
     FM131500 36012G18KT P6SM SKC=



000
FTUS42 KCAE 121729
TAFAGS
TAF
KAGS 121729Z 1218/1318 35006KT P6SM BKN100
     FM130200 30010KT P6SM SKC
     FM131400 35009KT P6SM SKC=



000
FTUS42 KCAE 121729
TAFCUB
TAF
KCUB 121729Z 1218/1318 35004KT P6SM SCT050 BKN100
     FM130200 27007KT P6SM SKC
     FM131400 34010KT P6SM FEW250=



000
FTUS42 KCAE 121729
TAFDNL
TAF
KDNL 121729Z 1218/1318 35006KT P6SM BKN100
     FM130200 30010KT P6SM SKC
     FM131400 35009KT P6SM SKC=



000
FTUS42 KCAE 121729
TAFCAE
TAF
KCAE 121729Z 1218/1318 35005KT P6SM SCT050 BKN100
     FM130200 27009KT P6SM SKC
     FM131400 35010KT P6SM FEW250=



000
FTUS42 KCAE 121729
TAFDNL
TAF
KDNL 121729Z 1218/1318 35006KT P6SM BKN100
     FM130200 30010KT P6SM SKC
     FM131400 35009KT P6SM SKC=



000
FTUS42 KCAE 121729
TAFCAE
TAF
KCAE 121729Z 1218/1318 35005KT P6SM SCT050 BKN100
     FM130200 27009KT P6SM SKC
     FM131400 35010KT P6SM FEW250=



000
FTUS42 KCAE 121729
TAFCUB
TAF
KCUB 121729Z 1218/1318 35004KT P6SM SCT050 BKN100
     FM130200 27007KT P6SM SKC
     FM131400 34010KT P6SM FEW250=



000
FTUS42 KCAE 121729
TAFOGB
TAF
KOGB 121729Z 1218/1318 34006KT P6SM SCT040 BKN100
     FM130000 29005KT P6SM SKC
     FM130500 29008KT P6SM SKC
     FM131500 36012G18KT P6SM SKC=



000
FTUS42 KCAE 121729
TAFAGS
TAF
KAGS 121729Z 1218/1318 35006KT P6SM BKN100
     FM130200 30010KT P6SM SKC
     FM131400 35009KT P6SM SKC=



000
FTUS42 KCAE 121452 AAA
TAFOGB
TAF AMD
KOGB 121452Z 1215/1312 05008KT P6SM SCT060 BKN120
      TEMPO 1216/1220 BKN025
     FM122000 30006KT P6SM BKN040
     FM130000 29005KT P6SM SCT150=



000
FTUS42 KCAE 121452 AAA
TAFAGS
TAF AMD
KAGS 121452Z 1215/1312 01006KT P6SM BKN060
      TEMPO 1216/1220 BKN025
     FM122100 29006KT P6SM BKN050
     FM130000 30005KT P6SM SCT150=



000
FTUS42 KCAE 121452 AAA
TAFCAE
TAF AMD
KCAE 121452Z 1215/1312 05007KT P6SM SCT050 BKN120
     FM122000 30005KT P6SM BKN035
     FM130000 27005KT P6SM SCT100=



000
FTUS42 KCAE 121452 AAA
TAFCUB
TAF AMD
KCUB 121452Z 1215/1312 05006KT P6SM SCT050 BKN120
     FM122000 30005KT P6SM BKN035
     FM130000 27005KT P6SM SCT100=



000
FTUS42 KCAE 121452 AAA
TAFDNL
TAF AMD
KDNL 121452Z 1215/1312 36006KT P6SM BKN060
      TEMPO 1216/1220 BKN025
     FM122100 29006KT P6SM BKN050
     FM130000 30005KT P6SM SCT150=



000
FTUS42 KCAE 121120
TAFCUB
TAF
KCUB 121120Z 1212/1312 VRB03KT P6SM OVC050
     FM121400 05008KT P6SM OVC040
     FM122000 29005KT P6SM BKN035
     FM130000 27005KT P6SM SCT100=



000
FTUS42 KCAE 121120
TAFAGS
TAF
KAGS 121120Z 1212/1312 VRB03KT P6SM OVC060
     FM121400 04006KT P6SM OVC025
     FM122100 29006KT P6SM BKN050
     FM130000 30005KT P6SM SCT150=



000
FTUS42 KCAE 121120
TAFCAE
TAF
KCAE 121120Z 1212/1312 VRB03KT P6SM OVC050
     FM121400 05008KT P6SM OVC040
     FM122000 29005KT P6SM BKN035
     FM130000 27005KT P6SM SCT100=



000
FTUS42 KCAE 121120
TAFOGB
TAF
KOGB 121120Z 1212/1312 VRB03KT P6SM OVC060
     FM121400 05008KT P6SM OVC035
     FM122000 30006KT P6SM BKN040
     FM130000 29005KT P6SM SCT150=



000
FTUS42 KCAE 121120
TAFDNL
TAF
KDNL 121120Z 1212/1312 VRB03KT P6SM OVC060
     FM121400 05006KT P6SM OVC025
     FM122100 29006KT P6SM BKN050
     FM130000 30005KT P6SM SCT150=



000
FTUS42 KCAE 121120
TAFCAE
TAF
KCAE 121120Z 1212/1312 VRB03KT P6SM OVC050
     FM121400 05008KT P6SM OVC040
     FM122000 29005KT P6SM BKN035
     FM130000 27005KT P6SM SCT100=



000
FTUS42 KCAE 121120
TAFAGS
TAF
KAGS 121120Z 1212/1312 VRB03KT P6SM OVC060
     FM121400 04006KT P6SM OVC025
     FM122100 29006KT P6SM BKN050
     FM130000 30005KT P6SM SCT150=



000
FTUS42 KCAE 121120
TAFOGB
TAF
KOGB 121120Z 1212/1312 VRB03KT P6SM OVC060
     FM121400 05008KT P6SM OVC035
     FM122000 30006KT P6SM BKN040
     FM130000 29005KT P6SM SCT150=



000
FTUS42 KCAE 121120
TAFDNL
TAF
KDNL 121120Z 1212/1312 VRB03KT P6SM OVC060
     FM121400 05006KT P6SM OVC025
     FM122100 29006KT P6SM BKN050
     FM130000 30005KT P6SM SCT150=



000
FTUS42 KCAE 121120
TAFCUB
TAF
KCUB 121120Z 1212/1312 VRB03KT P6SM OVC050
     FM121400 05008KT P6SM OVC040
     FM122000 29005KT P6SM BKN035
     FM130000 27005KT P6SM SCT100=



000
FTUS42 KCAE 120836 AAA
TAFCAE
TAF AMD
KCAE 120836Z 1209/1306 VRB03KT P6SM OVC050
     FM121200 05008KT P6SM OVC035
     FM122200 28005KT P6SM BKN050=



000
FTUS42 KCAE 120836 AAA
TAFDNL
TAF AMD
KDNL 120836Z 1209/1306 VRB03KT P6SM OVC060
     FM121200 05006KT P6SM OVC025
     FM122100 29006KT P6SM BKN050=



000
FTUS42 KCAE 120836 AAA
TAFCUB
TAF AMD
KCUB 120836Z 1209/1306 VRB03KT P6SM OVC050
     FM121200 05006KT P6SM OVC035
     FM122200 28004KT P6SM BKN050=



000
FTUS42 KCAE 120836 AAA
TAFOGB
TAF AMD
KOGB 120836Z 1209/1306 VRB03KT P6SM OVC060
     FM121200 05008KT P6SM OVC030
     FM122200 30006KT P6SM SCT050=



000
FTUS42 KCAE 120836 AAA
TAFAGS
TAF AMD
KAGS 120836Z 1209/1306 VRB03KT P6SM OVC060
     FM121200 05006KT P6SM OVC025
     FM122100 29006KT P6SM BKN050=



000
FTUS42 KCAE 120836 AAA
TAFDNL
TAF AMD
KDNL 120836Z 1209/1306 VRB03KT P6SM OVC060
     FM121200 05006KT P6SM OVC025
     FM122100 29006KT P6SM BKN050=



000
FTUS42 KCAE 120836 AAA
TAFOGB
TAF AMD
KOGB 120836Z 1209/1306 VRB03KT P6SM OVC060
     FM121200 05008KT P6SM OVC030
     FM122200 30006KT P6SM SCT050=



000
FTUS42 KCAE 120836 AAA
TAFCAE
TAF AMD
KCAE 120836Z 1209/1306 VRB03KT P6SM OVC050
     FM121200 05008KT P6SM OVC035
     FM122200 28005KT P6SM BKN050=



000
FTUS42 KCAE 120836 AAA
TAFCUB
TAF AMD
KCUB 120836Z 1209/1306 VRB03KT P6SM OVC050
     FM121200 05006KT P6SM OVC035
     FM122200 28004KT P6SM BKN050=



000
FTUS42 KCAE 120836 AAA
TAFAGS
TAF AMD
KAGS 120836Z 1209/1306 VRB03KT P6SM OVC060
     FM121200 05006KT P6SM OVC025
     FM122100 29006KT P6SM BKN050=



000
FTUS42 KCAE 120534
TAFOGB
TAF
KOGB 120534Z 1206/1306 VRB03KT P6SM OVC060
     FM121200 05008KT P6SM OVC030
     FM122200 30006KT P6SM SCT050=



000
FTUS42 KCAE 120534
TAFCUB
TAF
KCUB 120534Z 1206/1306 VRB03KT P6SM OVC060
     FM121200 05006KT P6SM OVC035
     FM122200 28004KT P6SM BKN050=



000
FTUS42 KCAE 120534
TAFDNL
TAF
KDNL 120534Z 1206/1306 VRB03KT P6SM OVC080
     FM121200 05006KT P6SM OVC025
     FM122100 29006KT P6SM BKN050=



000
FTUS42 KCAE 120534
TAFCAE
TAF
KCAE 120534Z 1206/1306 VRB03KT P6SM OVC060
     FM121200 05008KT P6SM OVC035
     FM122200 28005KT P6SM BKN050=



000
FTUS42 KCAE 120534
TAFAGS
TAF
KAGS 120534Z 1206/1306 VRB03KT P6SM OVC080
     FM121200 05006KT P6SM OVC025
     FM122100 29006KT P6SM BKN050=



000
FTUS42 KCAE 120534
TAFCAE
TAF
KCAE 120534Z 1206/1306 VRB03KT P6SM OVC060
     FM121200 05008KT P6SM OVC035
     FM122200 28005KT P6SM BKN050=



000
FTUS42 KCAE 120534
TAFDNL
TAF
KDNL 120534Z 1206/1306 VRB03KT P6SM OVC080
     FM121200 05006KT P6SM OVC025
     FM122100 29006KT P6SM BKN050=



000
FTUS42 KCAE 120534
TAFAGS
TAF
KAGS 120534Z 1206/1306 VRB03KT P6SM OVC080
     FM121200 05006KT P6SM OVC025
     FM122100 29006KT P6SM BKN050=



000
FTUS42 KCAE 120534
TAFCUB
TAF
KCUB 120534Z 1206/1306 VRB03KT P6SM OVC060
     FM121200 05006KT P6SM OVC035
     FM122200 28004KT P6SM BKN050=



000
FTUS42 KCAE 120534
TAFOGB
TAF
KOGB 120534Z 1206/1306 VRB03KT P6SM OVC060
     FM121200 05008KT P6SM OVC030
     FM122200 30006KT P6SM SCT050=



000
FTUS42 KCAE 120526 AAB
TAFAGS
TAF AMD
KAGS 120526Z 1205/1224 VRB03KT P6SM OVC080
     FM121200 05006KT P6SM OVC025
     FM122100 29006KT P6SM BKN050=



000
FTUS42 KCAE 120526 AAB
TAFOGB
TAF AMD
KOGB 120526Z 1205/1224 VRB03KT P6SM OVC060
     FM121200 05008KT P6SM OVC030
     FM122200 30006KT P6SM SCT050=



000
FTUS42 KCAE 120526 AAB
TAFDNL
TAF AMD
KDNL 120526Z 1205/1224 VRB03KT P6SM OVC080
     FM121200 05006KT P6SM OVC025
     FM122100 29006KT P6SM BKN050=



000
FTUS42 KCAE 120526 AAB
TAFCUB
TAF AMD
KCUB 120526Z 1205/1224 VRB03KT P6SM OVC060
     FM121200 05006KT P6SM OVC035
     FM122200 28004KT P6SM BKN050=



000
FTUS42 KCAE 120526 AAC
TAFCAE
TAF AMD
KCAE 120526Z 1205/1224 VRB03KT P6SM OVC060
     FM121200 05008KT P6SM OVC035
     FM122200 28005KT P6SM BKN050=



000
FTUS42 KCAE 120229 AAB
TAFCAE
TAF AMD
KCAE 120229Z 1202/1224 00000KT P6SM SKC
     FM120400 VRB03KT P6SM OVC060
     FM121200 05008KT P6SM OVC035
     FM122200 28005KT P6SM BKN050=



000
FTUS42 KCAE 120228 AAA
TAFCUB
TAF AMD
KCUB 120228Z 1202/1224 00000KT P6SM SKC
     FM120400 VRB03KT P6SM OVC060
     FM121200 05006KT P6SM OVC035
     FM122200 28004KT P6SM BKN050=



000
FTUS42 KCAE 120228 AAA
TAFCUB
TAF AMD
KCUB 120228Z 1202/1224 00000KT P6SM SKC
     FM120400 VRB03KT P6SM OVC060
     FM121200 05006KT P6SM OVC035
     FM122200 28004KT P6SM BKN050=



000
FTUS42 KCAE 120203 AAA
TAFDNL
TAF AMD
KDNL 120203Z 1202/1224 08004KT P6SM SKC
     FM120300 08004KT P6SM OVC060
     FM121200 05006KT P6SM OVC025
     FM122100 29006KT P6SM BKN050=



000
FTUS42 KCAE 120203 AAA
TAFDNL
TAF AMD
KDNL 120203Z 1202/1224 08004KT P6SM SKC
     FM120300 08004KT P6SM OVC060
     FM121200 05006KT P6SM OVC025
     FM122100 29006KT P6SM BKN050=



000
FTUS42 KCAE 120202 AAA
TAFAGS
TAF AMD
KAGS 120202Z 1202/1224 00000KT P6SM SKC
     FM120300 VRB03KT P6SM OVC060
     FM121200 05006KT P6SM OVC025
     FM122100 29006KT P6SM BKN050=



000
FTUS42 KCAE 120202 AAA
TAFAGS
TAF AMD
KAGS 120202Z 1202/1224 00000KT P6SM SKC
     FM120300 VRB03KT P6SM OVC060
     FM121200 05006KT P6SM OVC025
     FM122100 29006KT P6SM BKN050=



000
FTUS42 KCAE 120200 AAA
TAFOGB
TAF AMD
KOGB 120200Z 1202/1224 12004KT P6SM OVC060
     FM120700 08004KT P6SM OVC050
     FM121200 05008KT P6SM OVC030
     FM122200 30006KT P6SM SCT050=



000
FTUS42 KCAE 120200 AAA
TAFOGB
TAF AMD
KOGB 120200Z 1202/1224 12004KT P6SM OVC060
     FM120700 08004KT P6SM OVC050
     FM121200 05008KT P6SM OVC030
     FM122200 30006KT P6SM SCT050=



000
FTUS42 KCAE 112338
TAFCUB
TAF
KCUB 112338Z 1200/1224 VRB03KT P6SM SKC
     FM120600 06003KT P6SM SCT050 OVC080
     FM121200 05006KT P6SM OVC035
     FM122200 28004KT P6SM BKN050=



000
FTUS42 KCAE 112338
TAFCAE
TAF
KCAE 112338Z 1200/1224 00000KT P6SM SKC
     FM120600 06003KT P6SM SCT050 OVC080
     FM121200 05008KT P6SM OVC035
     FM122200 28005KT P6SM BKN050=



000
FTUS42 KCAE 112338
TAFOGB
TAF
KOGB 112338Z 1200/1224 VRB03KT P6SM SKC
     FM120400 08003KT P6SM OVC050
     FM121200 05008KT P6SM OVC030
     FM122200 30006KT P6SM BKN050=



000
FTUS42 KCAE 112338
TAFAGS
TAF
KAGS 112338Z 1200/1224 VRB03KT 6SM FU SKC
      TEMPO 1200/1203 4SM FU
     FM120300 VRB03KT P6SM OVC050
     FM121200 05006KT P6SM OVC025
     FM122100 29006KT P6SM BKN050=



000
FTUS42 KCAE 112338
TAFDNL
TAF
KDNL 112338Z 1200/1224 VRB03KT 6SM FU SKC
      TEMPO 1200/1203 4SM FU
     FM120300 08004KT P6SM OVC050
     FM121200 05006KT P6SM OVC025
     FM122100 29006KT P6SM BKN050=



000
FTUS42 KCAE 112338
TAFCUB
TAF
KCUB 112338Z 1200/1224 VRB03KT P6SM SKC
     FM120600 06003KT P6SM SCT050 OVC080
     FM121200 05006KT P6SM OVC035
     FM122200 28004KT P6SM BKN050=



000
FTUS42 KCAE 112338
TAFOGB
TAF
KOGB 112338Z 1200/1224 VRB03KT P6SM SKC
     FM120400 08003KT P6SM OVC050
     FM121200 05008KT P6SM OVC030
     FM122200 30006KT P6SM BKN050=



000
FTUS42 KCAE 112338
TAFCAE
TAF
KCAE 112338Z 1200/1224 00000KT P6SM SKC
     FM120600 06003KT P6SM SCT050 OVC080
     FM121200 05008KT P6SM OVC035
     FM122200 28005KT P6SM BKN050=



000
FTUS42 KCAE 112338
TAFAGS
TAF
KAGS 112338Z 1200/1224 VRB03KT 6SM FU SKC
      TEMPO 1200/1203 4SM FU
     FM120300 VRB03KT P6SM OVC050
     FM121200 05006KT P6SM OVC025
     FM122100 29006KT P6SM BKN050=



000
FTUS42 KCAE 112338
TAFDNL
TAF
KDNL 112338Z 1200/1224 VRB03KT 6SM FU SKC
      TEMPO 1200/1203 4SM FU
     FM120300 08004KT P6SM OVC050
     FM121200 05006KT P6SM OVC025
     FM122100 29006KT P6SM BKN050=



000
FTUS42 KCAE 112057 AAA
TAFAGS
TAF AMD
KAGS 112057Z 1121/1218 VRB04KT 4SM FU SCT035
     FM120000 VRB04KT 6SM HZ SKC
     FM120300 VRB03KT P6SM BKN050
     FM121200 05008KT P6SM OVC050=



000
FTUS42 KCAE 112057 AAA
TAFCAE
TAF AMD
KCAE 112057Z 1121/1218 VRB04KT P6SM SKC
     FM120400 VRB03KT P6SM BKN050
     FM121200 05008KT P6SM OVC050=



000
FTUS42 KCAE 112057 AAA
TAFCUB
TAF AMD
KCUB 112057Z 1121/1218 VRB04KT P6SM SKC
     FM120400 VRB03KT P6SM BKN050
     FM121200 05008KT P6SM OVC050=



000
FTUS42 KCAE 112057 AAA
TAFDNL
TAF AMD
KDNL 112057Z 1121/1218 VRB04KT P6SM SKC
     FM120300 VRB04KT P6SM BKN050
     FM121200 05008KT P6SM OVC050=



000
FTUS42 KCAE 112057 AAA
TAFOGB
TAF AMD
KOGB 112057Z 1121/1218 VRB05KT P6SM SKC
     FM120300 VRB03KT P6SM BKN050
     FM121200 05008KT P6SM OVC050=



000
FTUS42 KCAE 112057 AAA
TAFOGB
TAF AMD
KOGB 112057Z 1121/1218 VRB05KT P6SM SKC
     FM120300 VRB03KT P6SM BKN050
     FM121200 05008KT P6SM OVC050=



000
FTUS42 KCAE 112057 AAA
TAFCAE
TAF AMD
KCAE 112057Z 1121/1218 VRB04KT P6SM SKC
     FM120400 VRB03KT P6SM BKN050
     FM121200 05008KT P6SM OVC050=



000
FTUS42 KCAE 112057 AAA
TAFDNL
TAF AMD
KDNL 112057Z 1121/1218 VRB04KT P6SM SKC
     FM120300 VRB04KT P6SM BKN050
     FM121200 05008KT P6SM OVC050=



000
FTUS42 KCAE 112057 AAA
TAFAGS
TAF AMD
KAGS 112057Z 1121/1218 VRB04KT 4SM FU SCT035
     FM120000 VRB04KT 6SM HZ SKC
     FM120300 VRB03KT P6SM BKN050
     FM121200 05008KT P6SM OVC050=



000
FTUS42 KCAE 112057 AAA
TAFCUB
TAF AMD
KCUB 112057Z 1121/1218 VRB04KT P6SM SKC
     FM120400 VRB03KT P6SM BKN050
     FM121200 05008KT P6SM OVC050=



000
FTUS42 KCAE 111731
TAFCAE
TAF
KCAE 111731Z 1118/1218 26004KT P6SM SCT080
     FM120000 VRB04KT P6SM SCT060 BKN250
     FM120600 VRB03KT P6SM OVC080
     FM121200 05008KT P6SM OVC050=



000
FTUS42 KCAE 111731
TAFOGB
TAF
KOGB 111731Z 1118/1218 26004KT P6SM SCT080
     FM120000 VRB04KT P6SM SCT060 BKN250
     FM120600 VRB03KT P6SM OVC080
     FM121200 05008KT P6SM OVC050=



000
FTUS42 KCAE 111731
TAFDNL
TAF
KDNL 111731Z 1118/1218 26004KT P6SM SCT250
     FM120000 VRB04KT P6SM SCT060 BKN250
     FM120600 VRB03KT P6SM OVC080
     FM121200 05008KT P6SM OVC050=



000
FTUS42 KCAE 111731
TAFCUB
TAF
KCUB 111731Z 1118/1218 26004KT P6SM SCT080
     FM120000 VRB04KT P6SM SCT060 BKN250
     FM120600 VRB03KT P6SM OVC080
     FM121200 05008KT P6SM OVC050=



000
FTUS42 KCAE 111731
TAFAGS
TAF
KAGS 111731Z 1118/1218 26004KT P6SM SCT250
     FM120000 VRB04KT P6SM SCT060 BKN250
     FM120600 VRB03KT P6SM OVC080
     FM121200 05008KT P6SM OVC050=



000
FTUS42 KCAE 111731
TAFAGS
TAF
KAGS 111731Z 1118/1218 26004KT P6SM SCT250
     FM120000 VRB04KT P6SM SCT060 BKN250
     FM120600 VRB03KT P6SM OVC080
     FM121200 05008KT P6SM OVC050=



000
FTUS42 KCAE 111731
TAFDNL
TAF
KDNL 111731Z 1118/1218 26004KT P6SM SCT250
     FM120000 VRB04KT P6SM SCT060 BKN250
     FM120600 VRB03KT P6SM OVC080
     FM121200 05008KT P6SM OVC050=



000
FTUS42 KCAE 111731
TAFOGB
TAF
KOGB 111731Z 1118/1218 26004KT P6SM SCT080
     FM120000 VRB04KT P6SM SCT060 BKN250
     FM120600 VRB03KT P6SM OVC080
     FM121200 05008KT P6SM OVC050=



000
FTUS42 KCAE 111731
TAFCUB
TAF
KCUB 111731Z 1118/1218 26004KT P6SM SCT080
     FM120000 VRB04KT P6SM SCT060 BKN250
     FM120600 VRB03KT P6SM OVC080
     FM121200 05008KT P6SM OVC050=



000
FTUS42 KCAE 111731
TAFCAE
TAF
KCAE 111731Z 1118/1218 26004KT P6SM SCT080
     FM120000 VRB04KT P6SM SCT060 BKN250
     FM120600 VRB03KT P6SM OVC080
     FM121200 05008KT P6SM OVC050=



000
FTUS42 KCAE 111520 AAA
TAFCAE
TAF AMD
KCAE 111520Z 1115/1212 26004KT P6SM SCT250
     FM111800 27008KT P6SM SCT060 BKN250
     FM120000 VRB03KT P6SM OVC080=



000
FTUS42 KCAE 111520 AAA
TAFDNL
TAF AMD
KDNL 111520Z 1115/1212 28004KT P6SM SCT250
     FM111800 28009KT P6SM BKN060
     FM120000 VRB03KT P6SM OVC080=



000
FTUS42 KCAE 111520 AAA
TAFAGS
TAF AMD
KAGS 111520Z 1115/1212 28004KT P6SM SCT250
     FM111800 28009KT P6SM BKN060
     FM120000 VRB03KT P6SM OVC080=



000
FTUS42 KCAE 111520 AAA
TAFCUB
TAF AMD
KCUB 111520Z 1115/1212 26004KT P6SM SCT250
     FM111800 27008KT P6SM SCT060 BKN250
     FM120000 VRB03KT P6SM OVC080=



000
FTUS42 KCAE 111520 AAA
TAFOGB
TAF AMD
KOGB 111520Z 1115/1212 28004KT P6SM SCT250
     FM111800 27008KT P6SM SCT050
     FM120000 VRB03KT P6SM OVC080=



000
FTUS42 KCAE 111520 AAA
TAFOGB
TAF AMD
KOGB 111520Z 1115/1212 28004KT P6SM SCT250
     FM111800 27008KT P6SM SCT050
     FM120000 VRB03KT P6SM OVC080=



000
FTUS42 KCAE 111520 AAA
TAFCUB
TAF AMD
KCUB 111520Z 1115/1212 26004KT P6SM SCT250
     FM111800 27008KT P6SM SCT060 BKN250
     FM120000 VRB03KT P6SM OVC080=



000
FTUS42 KCAE 111520 AAA
TAFCAE
TAF AMD
KCAE 111520Z 1115/1212 26004KT P6SM SCT250
     FM111800 27008KT P6SM SCT060 BKN250
     FM120000 VRB03KT P6SM OVC080=



000
FTUS42 KCAE 111520 AAA
TAFDNL
TAF AMD
KDNL 111520Z 1115/1212 28004KT P6SM SCT250
     FM111800 28009KT P6SM BKN060
     FM120000 VRB03KT P6SM OVC080=



000
FTUS42 KCAE 111520 AAA
TAFAGS
TAF AMD
KAGS 111520Z 1115/1212 28004KT P6SM SCT250
     FM111800 28009KT P6SM BKN060
     FM120000 VRB03KT P6SM OVC080=



000
FTUS42 KCAE 111139
TAFAGS
TAF
KAGS 111139Z 1112/1212 28004KT P6SM SCT250
     FM111800 28009KT P6SM BKN060
     FM120000 VRB03KT P6SM OVC080=



000
FTUS42 KCAE 111139
TAFDNL
TAF
KDNL 111139Z 1112/1212 28004KT P6SM SCT250
     FM111800 28009KT P6SM BKN060
     FM120000 VRB03KT P6SM OVC080=



000
FTUS42 KCAE 111139
TAFCUB
TAF
KCUB 111139Z 1112/1212 26004KT P6SM SCT250
     FM111800 27008KT P6SM SCT060 BKN250
     FM120000 VRB03KT P6SM OVC080=



000
FTUS42 KCAE 111139
TAFDNL
TAF
KDNL 111139Z 1112/1212 28004KT P6SM SCT250
     FM111800 28009KT P6SM BKN060
     FM120000 VRB03KT P6SM OVC080=



000
FTUS42 KCAE 111139
TAFCAE
TAF
KCAE 111139Z 1112/1212 26004KT P6SM SCT250
     FM111800 27008KT P6SM SCT060 BKN250
     FM120000 VRB03KT P6SM OVC080=



000
FTUS42 KCAE 111139
TAFOGB
TAF
KOGB 111139Z 1112/1212 28004KT P6SM SCT250
     FM111800 27008KT P6SM SCT050
     FM120000 VRB03KT P6SM OVC080=



000
FTUS42 KCAE 111139
TAFCUB
TAF
KCUB 111139Z 1112/1212 26004KT P6SM SCT250
     FM111800 27008KT P6SM SCT060 BKN250
     FM120000 VRB03KT P6SM OVC080=



000
FTUS42 KCAE 111139
TAFOGB
TAF
KOGB 111139Z 1112/1212 28004KT P6SM SCT250
     FM111800 27008KT P6SM SCT050
     FM120000 VRB03KT P6SM OVC080=



000
FTUS42 KCAE 111139
TAFAGS
TAF
KAGS 111139Z 1112/1212 28004KT P6SM SCT250
     FM111800 28009KT P6SM BKN060
     FM120000 VRB03KT P6SM OVC080=



000
FTUS42 KCAE 111139
TAFCAE
TAF
KCAE 111139Z 1112/1212 26004KT P6SM SCT250
     FM111800 27008KT P6SM SCT060 BKN250
     FM120000 VRB03KT P6SM OVC080=



000
FTUS42 KCAE 111122 AAA
TAFAGS
TAF AMD
KAGS 111122Z 1111/1212 28004KT P6SM SCT250
     FM111800 28009KT P6SM BKN060
     FM120000 VRB03KT P6SM OVC080=



000
FTUS42 KCAE 111122 AAA
TAFOGB
TAF AMD
KOGB 111122Z 1111/1212 28004KT P6SM SCT250
     FM111800 27008KT P6SM SCT050
     FM120000 VRB03KT P6SM OVC080=



000
FTUS42 KCAE 111122 AAA
TAFCUB
TAF AMD
KCUB 111122Z 1111/1212 26004KT P6SM SCT250
     FM111800 27008KT P6SM SCT060 BKN250
     FM120000 VRB03KT P6SM OVC080=



000
FTUS42 KCAE 111122 AAA
TAFCAE
TAF AMD
KCAE 111122Z 1111/1212 26004KT P6SM SCT250
     FM111800 27008KT P6SM SCT060 BKN250
     FM120000 VRB03KT P6SM OVC080=



000
FTUS42 KCAE 111122 AAA
TAFDNL
TAF AMD
KDNL 111122Z 1111/1212 28004KT P6SM SCT250
     FM111800 28009KT P6SM BKN060
     FM120000 VRB03KT P6SM OVC080=



000
FTUS42 KCAE 111120
TAFOGB
TAF
KOGB 111120Z 1112/1212 28004KT P6SM SCT250
     FM111600 27008KT P6SM SCT050
     FM120000 VRB03KT P6SM OVC080=



000
FTUS42 KCAE 111120
TAFCAE
TAF
KCAE 111120Z 1112/1212 26004KT P6SM SCT250
     FM111600 27008KT P6SM SCT060 BKN250
     FM120000 VRB03KT P6SM OVC080=



000
FTUS42 KCAE 111120
TAFCUB
TAF
KCUB 111120Z 1112/1212 26004KT P6SM SCT250
     FM111600 27008KT P6SM SCT060 BKN250
     FM120000 VRB03KT P6SM OVC080=



000
FTUS42 KCAE 111120
TAFDNL
TAF
KDNL 111120Z 1112/1212 28004KT P6SM SCT250
     FM111700 28009KT P6SM BKN060
     FM120000 VRB03KT P6SM OVC080=



000
FTUS42 KCAE 111120
TAFAGS
TAF
KAGS 111120Z 1112/1212 28004KT P6SM SCT250
     FM111700 28009KT P6SM BKN060
     FM120000 VRB03KT P6SM OVC080=



000
FTUS42 KCAE 110836 AAA
TAFOGB
TAF AMD
KOGB 110836Z 1109/1206 27005KT P6SM SCT250
     FM111600 27008KT P6SM SCT050=



000
FTUS42 KCAE 110836 AAA
TAFCAE
TAF AMD
KCAE 110836Z 1109/1206 26005KT P6SM SCT100
     FM111600 27008KT P6SM SCT060 BKN250=



000
FTUS42 KCAE 110836 AAA
TAFAGS
TAF AMD
KAGS 110836Z 1109/1206 28005KT P6SM BKN100
     FM111700 28010KT P6SM BKN060=



000
FTUS42 KCAE 110836 AAA
TAFCUB
TAF AMD
KCUB 110836Z 1109/1206 26005KT P6SM SCT100
     FM111600 27008KT P6SM SCT060 BKN250=



000
FTUS42 KCAE 110836 AAA
TAFDNL
TAF AMD
KDNL 110836Z 1109/1206 28004KT P6SM BKN100
     FM111700 28010KT P6SM BKN060=



    US Dept of Commerce
    National Oceanic and Atmospheric Administration
    National Weather Service
    1325 East West Highway
    Silver Spring, MD 20910
    Page Author: NWS Internet Services Team
Disclaimer
Information Quality
Credits
Glossary
Privacy Policy
Freedom of Information Act (FOIA)
About Us
Career Opportunities